Pagrindinis puslapis
METAR-TAF:

METAR-TAF

Oro uostai :

Užhorodas, Ukraina

platuma: 48-38-05N, ilguma: 022-15-53E, Aukštis: 117 m

Dabartinis oras

Ataskaita buvo paskelbta 10 valandos ir 41 minutes, ne 15:00 UTC
Vėjas 8 kt iš Vakarų, svyruoja nuo Pietvakarių ir Šiaurės Vakarų
Temperatūra 22°C
Drėgmė 17%
Slėgis 1025 hPa
Matomumas 10 km arba daugiau

METAR: UKLU 081500Z 27004MPS 230V320 9999 NSC 22/M04 Q1025 R10/090070 NOSIG

Laikas: 04:41 (01:41 UTC)

Prognozė

Ataskaita buvo paskelbta 11 valandos ir 40 minutes, ne 14:01 UTC
Prognozė galioja nuo 08 metu 15 UTC su 08 metu 24 UTC
Vėjas 4 kt nuo kintamojo kryptimis
Matomumas 10 km arba daugiau

TAF: UKLU 081401Z 0815/0824 VRB02MPS 9999 NSC

Orai ataskaitas ir orų prognozės (METAR, TAF).

turimą stotys yra geltonos ir raudonos taškus žemėlapyje.

Perkelti pele per norėdami pamatyti stoties vardą.

Tada spustelėkite, norėdami matyti oro stebėjimo ir prognozės.

Norėdami pakeisti žemėlapį: spustelėkite ant žalios mygtukų su juodo kryžiaus žemyn,; žalią mygtuką su brūkšneliu, jei norite nutolinti; arba žalių rodyklių gretimoms žemėlapius.


METAR-TAF: